sensor_id;sensor_type;location;lat;lon;timestamp;temperature;humidity
23637;DHT22;11995;50.842;4.456;2022-10-23T00:01:40;15.20;99.90
23637;DHT22;11995;50.842;4.456;2022-10-23T00:04:13;15.30;99.90
23637;DHT22;11995;50.842;4.456;2022-10-23T00:06:42;15.30;99.90
23637;DHT22;11995;50.842;4.456;2022-10-23T00:09:11;15.20;99.90
23637;DHT22;11995;50.842;4.456;2022-10-23T00:11:39;15.30;99.90
23637;DHT22;11995;50.842;4.456;2022-10-23T00:14:08;15.20;99.90
23637;DHT22;11995;50.842;4.456;2022-10-23T00:16:35;15.10;99.90
23637;DHT22;11995;50.842;4.456;2022-10-23T00:19:03;15.20;99.90
23637;DHT22;11995;50.842;4.456;2022-10-23T00:21:31;15.30;99.90
23637;DHT22;11995;50.842;4.456;2022-10-23T00:23:59;15.30;99.90
23637;DHT22;11995;50.842;4.456;2022-10-23T00:26:26;15.40;99.90
23637;DHT22;11995;50.842;4.456;2022-10-23T00:28:54;15.50;99.90
23637;DHT22;11995;50.842;4.456;2022-10-23T00:31:24;15.50;99.90
23637;DHT22;11995;50.842;4.456;2022-10-23T00:33:52;15.40;99.90
23637;DHT22;11995;50.842;4.456;2022-10-23T00:36:20;15.50;99.90
23637;DHT22;11995;50.842;4.456;2022-10-23T00:38:48;15.50;99.90
23637;DHT22;11995;50.842;4.456;2022-10-23T00:41:22;15.50;99.90
23637;DHT22;11995;50.842;4.456;2022-10-23T00:45:05;15.40;99.90
23637;DHT22;11995;50.842;4.456;2022-10-23T00:46:38;15.60;99.90
23637;DHT22;11995;50.842;4.456;2022-10-23T00:49:06;15.70;99.90
23637;DHT22;11995;50.842;4.456;2022-10-23T00:51:42;15.60;99.90
23637;DHT22;11995;50.842;4.456;2022-10-23T00:54:06;15.50;99.90
23637;DHT22;11995;50.842;4.456;2022-10-23T00:56:35;15.50;99.90
23637;DHT22;11995;50.842;4.456;2022-10-23T00:59:04;15.50;99.90
23637;DHT22;11995;50.842;4.456;2022-10-23T01:01:32;15.50;99.90
23637;DHT22;11995;50.842;4.456;2022-10-23T01:04:02;15.40;99.90
23637;DHT22;11995;50.842;4.456;2022-10-23T01:06:34;15.50;99.90
23637;DHT22;11995;50.842;4.456;2022-10-23T01:09:36;15.50;99.90
23637;DHT22;11995;50.842;4.456;2022-10-23T01:12:14;15.60;99.90
23637;DHT22;11995;50.842;4.456;2022-10-23T01:15:03;15.70;99.90
23637;DHT22;11995;50.842;4.456;2022-10-23T01:17:45;15.60;99.90
23637;DHT22;11995;50.842;4.456;2022-10-23T01:20:42;15.60;99.90
23637;DHT22;11995;50.842;4.456;2022-10-23T01:29:03;15.60;99.90
23637;DHT22;11995;50.842;4.456;2022-10-23T01:31:44;15.60;99.90
23637;DHT22;11995;50.842;4.456;2022-10-23T01:34:15;15.60;99.90
23637;DHT22;11995;50.842;4.456;2022-10-23T01:36:45;15.60;99.90
23637;DHT22;11995;50.842;4.456;2022-10-23T01:39:24;15.50;99.90
23637;DHT22;11995;50.842;4.456;2022-10-23T01:41:55;15.50;99.90
23637;DHT22;11995;50.842;4.456;2022-10-23T01:44:35;15.60;99.90
23637;DHT22;11995;50.842;4.456;2022-10-23T01:47:05;15.60;99.90
23637;DHT22;11995;50.842;4.456;2022-10-23T01:49:37;15.60;99.90
23637;DHT22;11995;50.842;4.456;2022-10-23T01:52:07;15.50;99.90
23637;DHT22;11995;50.842;4.456;2022-10-23T01:54:37;15.60;99.90
23637;DHT22;11995;50.842;4.456;2022-10-23T01:57:07;15.60;99.90
23637;DHT22;11995;50.842;4.456;2022-10-23T01:59:42;15.70;99.90
23637;DHT22;11995;50.842;4.456;2022-10-23T02:02:10;15.60;99.90
23637;DHT22;11995;50.842;4.456;2022-10-23T02:04:54;15.70;99.90
23637;DHT22;11995;50.842;4.456;2022-10-23T02:07:10;15.70;99.90
23637;DHT22;11995;50.842;4.456;2022-10-23T02:09:37;15.50;99.90
23637;DHT22;11995;50.842;4.456;2022-10-23T02:12:07;15.50;99.90
23637;DHT22;11995;50.842;4.456;2022-10-23T02:17:42;15.70;99.90
23637;DHT22;11995;50.842;4.456;2022-10-23T02:22:47;15.70;99.90
23637;DHT22;11995;50.842;4.456;2022-10-23T02:25:19;15.50;99.90
23637;DHT22;11995;50.842;4.456;2022-10-23T02:27:52;15.70;99.90
23637;DHT22;11995;50.842;4.456;2022-10-23T02:30:21;15.70;99.90
23637;DHT22;11995;50.842;4.456;2022-10-23T02:32:51;15.70;99.90
23637;DHT22;11995;50.842;4.456;2022-10-23T02:35:21;15.70;99.90
23637;DHT22;11995;50.842;4.456;2022-10-23T02:37:56;15.60;99.90
23637;DHT22;11995;50.842;4.456;2022-10-23T02:40:25;15.50;99.90
23637;DHT22;11995;50.842;4.456;2022-10-23T02:43:18;15.60;99.90
23637;DHT22;11995;50.842;4.456;2022-10-23T02:45:52;15.60;99.90
23637;DHT22;11995;50.842;4.456;2022-10-23T02:48:25;15.80;99.90
23637;DHT22;11995;50.842;4.456;2022-10-23T02:50:55;15.70;99.90
23637;DHT22;11995;50.842;4.456;2022-10-23T02:53:29;15.60;99.90
23637;DHT22;11995;50.842;4.456;2022-10-23T02:56:27;15.60;99.90
23637;DHT22;11995;50.842;4.456;2022-10-23T02:58:59;15.60;99.90
23637;DHT22;11995;50.842;4.456;2022-10-23T03:01:32;15.60;99.90
23637;DHT22;11995;50.842;4.456;2022-10-23T03:03:59;15.60;99.90
23637;DHT22;11995;50.842;4.456;2022-10-23T03:06:28;15.50;99.90
23637;DHT22;11995;50.842;4.456;2022-10-23T03:09:02;15.40;99.90
23637;DHT22;11995;50.842;4.456;2022-10-23T03:11:29;15.70;99.90
23637;DHT22;11995;50.842;4.456;2022-10-23T03:13:56;15.80;99.90
23637;DHT22;11995;50.842;4.456;2022-10-23T03:16:24;15.80;99.90
23637;DHT22;11995;50.842;4.456;2022-10-23T03:18:52;15.80;99.90
23637;DHT22;11995;50.842;4.456;2022-10-23T03:21:19;15.70;99.90
23637;DHT22;11995;50.842;4.456;2022-10-23T03:23:47;15.60;99.90
23637;DHT22;11995;50.842;4.456;2022-10-23T03:26:14;15.60;99.90
23637;DHT22;11995;50.842;4.456;2022-10-23T03:28:42;15.60;99.90
23637;DHT22;11995;50.842;4.456;2022-10-23T03:31:09;15.60;99.90
23637;DHT22;11995;50.842;4.456;2022-10-23T03:33:37;15.80;99.90
23637;DHT22;11995;50.842;4.456;2022-10-23T03:36:05;15.80;99.90
23637;DHT22;11995;50.842;4.456;2022-10-23T03:38:32;15.80;99.90
23637;DHT22;11995;50.842;4.456;2022-10-23T03:41:00;15.80;99.90
23637;DHT22;11995;50.842;4.456;2022-10-23T03:43:27;15.70;99.90
23637;DHT22;11995;50.842;4.456;2022-10-23T03:45:56;15.80;99.90
23637;DHT22;11995;50.842;4.456;2022-10-23T03:48:23;15.80;99.90
23637;DHT22;11995;50.842;4.456;2022-10-23T03:50:51;15.80;99.90
23637;DHT22;11995;50.842;4.456;2022-10-23T03:53:18;15.70;99.90
23637;DHT22;11995;50.842;4.456;2022-10-23T03:55:46;15.60;99.90
23637;DHT22;11995;50.842;4.456;2022-10-23T03:58:13;15.80;99.90
23637;DHT22;11995;50.842;4.456;2022-10-23T04:00:41;15.80;99.90
23637;DHT22;11995;50.842;4.456;2022-10-23T04:03:08;15.70;99.90
23637;DHT22;11995;50.842;4.456;2022-10-23T04:05:36;15.60;99.90
23637;DHT22;11995;50.842;4.456;2022-10-23T04:08:04;15.60;99.90
23637;DHT22;11995;50.842;4.456;2022-10-23T04:10:32;15.70;99.90
23637;DHT22;11995;50.842;4.456;2022-10-23T04:12:59;15.70;99.90
23637;DHT22;11995;50.842;4.456;2022-10-23T04:15:27;15.80;99.90
23637;DHT22;11995;50.842;4.456;2022-10-23T04:17:54;15.90;99.90
23637;DHT22;11995;50.842;4.456;2022-10-23T04:20:22;15.80;99.90
23637;DHT22;11995;50.842;4.456;2022-10-23T04:22:49;15.80;99.90
23637;DHT22;11995;50.842;4.456;2022-10-23T04:25:17;15.80;99.90
23637;DHT22;11995;50.842;4.456;2022-10-23T04:27:44;15.80;99.90
23637;DHT22;11995;50.842;4.456;2022-10-23T04:30:12;15.90;99.90
23637;DHT22;11995;50.842;4.456;2022-10-23T04:32:39;15.90;99.90
23637;DHT22;11995;50.842;4.456;2022-10-23T04:35:07;15.80;99.90
23637;DHT22;11995;50.842;4.456;2022-10-23T04:37:34;15.60;99.90
23637;DHT22;11995;50.842;4.456;2022-10-23T04:40:02;15.60;99.90
23637;DHT22;11995;50.842;4.456;2022-10-23T04:42:30;15.60;99.90
23637;DHT22;11995;50.842;4.456;2022-10-23T04:44:57;15.70;99.90
23637;DHT22;11995;50.842;4.456;2022-10-23T04:47:25;15.80;99.90
23637;DHT22;11995;50.842;4.456;2022-10-23T04:49:52;15.70;99.90
23637;DHT22;11995;50.842;4.456;2022-10-23T04:52:19;15.70;99.90
23637;DHT22;11995;50.842;4.456;2022-10-23T04:54:47;15.60;99.90
23637;DHT22;11995;50.842;4.456;2022-10-23T04:57:14;15.60;99.90
23637;DHT22;11995;50.842;4.456;2022-10-23T04:59:42;15.50;99.90
23637;DHT22;11995;50.842;4.456;2022-10-23T05:02:10;15.60;99.90
23637;DHT22;11995;50.842;4.456;2022-10-23T05:04:37;15.60;99.90
23637;DHT22;11995;50.842;4.456;2022-10-23T05:07:05;15.60;99.90
23637;DHT22;11995;50.842;4.456;2022-10-23T05:09:32;15.80;99.90
23637;DHT22;11995;50.842;4.456;2022-10-23T05:12:01;15.80;99.90
23637;DHT22;11995;50.842;4.456;2022-10-23T05:14:29;15.80;99.90
23637;DHT22;11995;50.842;4.456;2022-10-23T05:17:06;15.80;99.90
23637;DHT22;11995;50.842;4.456;2022-10-23T05:19:37;15.80;99.90
23637;DHT22;11995;50.842;4.456;2022-10-23T05:22:04;15.80;99.90
23637;DHT22;11995;50.842;4.456;2022-10-23T05:24:32;15.80;99.90
23637;DHT22;11995;50.842;4.456;2022-10-23T05:27:00;15.80;99.90
23637;DHT22;11995;50.842;4.456;2022-10-23T05:29:27;15.90;99.90
23637;DHT22;11995;50.842;4.456;2022-10-23T05:31:58;16.00;99.90
23637;DHT22;11995;50.842;4.456;2022-10-23T05:34:26;15.90;99.90
23637;DHT22;11995;50.842;4.456;2022-10-23T05:36:55;15.90;99.90
23637;DHT22;11995;50.842;4.456;2022-10-23T05:39:23;15.90;99.90
23637;DHT22;11995;50.842;4.456;2022-10-23T05:41:51;15.90;99.90
23637;DHT22;11995;50.842;4.456;2022-10-23T05:44:20;15.90;99.90
23637;DHT22;11995;50.842;4.456;2022-10-23T05:46:49;16.00;99.90
23637;DHT22;11995;50.842;4.456;2022-10-23T05:49:16;15.90;99.90
23637;DHT22;11995;50.842;4.456;2022-10-23T05:51:44;15.90;99.90
23637;DHT22;11995;50.842;4.456;2022-10-23T05:54:12;16.00;99.90
23637;DHT22;11995;50.842;4.456;2022-10-23T05:56:40;15.70;99.90
23637;DHT22;11995;50.842;4.456;2022-10-23T05:59:07;15.80;99.90
23637;DHT22;11995;50.842;4.456;2022-10-23T06:01:35;15.80;99.90
23637;DHT22;11995;50.842;4.456;2022-10-23T06:04:04;16.00;99.90
23637;DHT22;11995;50.842;4.456;2022-10-23T06:06:32;15.90;99.90
23637;DHT22;11995;50.842;4.456;2022-10-23T06:08:59;15.90;99.90
23637;DHT22;11995;50.842;4.456;2022-10-23T06:11:27;15.80;99.90
23637;DHT22;11995;50.842;4.456;2022-10-23T06:13:54;15.90;99.90
23637;DHT22;11995;50.842;4.456;2022-10-23T06:16:23;15.80;99.90
23637;DHT22;11995;50.842;4.456;2022-10-23T06:18:52;15.80;99.90
23637;DHT22;11995;50.842;4.456;2022-10-23T06:21:20;15.90;99.90
23637;DHT22;11995;50.842;4.456;2022-10-23T06:23:48;15.80;99.90
23637;DHT22;11995;50.842;4.456;2022-10-23T06:26:16;15.70;99.90
23637;DHT22;11995;50.842;4.456;2022-10-23T06:28:45;15.60;99.90
23637;DHT22;11995;50.842;4.456;2022-10-23T06:31:15;15.50;99.90
23637;DHT22;11995;50.842;4.456;2022-10-23T06:33:44;15.50;99.90
23637;DHT22;11995;50.842;4.456;2022-10-23T06:36:12;15.40;99.90
23637;DHT22;11995;50.842;4.456;2022-10-23T06:38:39;15.40;99.90
23637;DHT22;11995;50.842;4.456;2022-10-23T06:41:13;15.50;99.90
23637;DHT22;11995;50.842;4.456;2022-10-23T06:43:37;15.50;99.90
23637;DHT22;11995;50.842;4.456;2022-10-23T06:46:05;15.60;99.90
23637;DHT22;11995;50.842;4.456;2022-10-23T06:48:33;15.70;99.90
23637;DHT22;11995;50.842;4.456;2022-10-23T06:51:05;15.80;99.90
23637;DHT22;11995;50.842;4.456;2022-10-23T06:53:35;15.80;99.90
23637;DHT22;11995;50.842;4.456;2022-10-23T06:56:04;15.90;99.90
23637;DHT22;11995;50.842;4.456;2022-10-23T06:58:32;15.90;99.90
23637;DHT22;11995;50.842;4.456;2022-10-23T07:01:01;16.00;99.90
23637;DHT22;11995;50.842;4.456;2022-10-23T07:03:30;16.10;99.90
23637;DHT22;11995;50.842;4.456;2022-10-23T07:06:01;16.20;99.90
23637;DHT22;11995;50.842;4.456;2022-10-23T07:08:29;16.20;99.90
23637;DHT22;11995;50.842;4.456;2022-10-23T07:10:57;16.20;99.90
23637;DHT22;11995;50.842;4.456;2022-10-23T07:13:24;16.30;99.90
23637;DHT22;11995;50.842;4.456;2022-10-23T07:15:52;16.30;99.90
23637;DHT22;11995;50.842;4.456;2022-10-23T07:18:19;16.20;99.90
23637;DHT22;11995;50.842;4.456;2022-10-23T07:20:47;16.30;99.90
23637;DHT22;11995;50.842;4.456;2022-10-23T07:23:15;16.10;99.90
23637;DHT22;11995;50.842;4.456;2022-10-23T07:25:42;16.00;99.90
23637;DHT22;11995;50.842;4.456;2022-10-23T07:28:10;15.90;99.90
23637;DHT22;11995;50.842;4.456;2022-10-23T07:30:37;16.00;99.90
23637;DHT22;11995;50.842;4.456;2022-10-23T07:33:06;16.20;99.90
23637;DHT22;11995;50.842;4.456;2022-10-23T07:35:33;16.20;99.90
23637;DHT22;11995;50.842;4.456;2022-10-23T07:38:01;16.30;99.90
23637;DHT22;11995;50.842;4.456;2022-10-23T07:40:28;16.40;99.90
23637;DHT22;11995;50.842;4.456;2022-10-23T07:42:56;16.60;99.90
23637;DHT22;11995;50.842;4.456;2022-10-23T07:45:24;16.60;99.90
23637;DHT22;11995;50.842;4.456;2022-10-23T07:47:51;16.70;99.90
23637;DHT22;11995;50.842;4.456;2022-10-23T07:50:19;16.60;99.90
23637;DHT22;11995;50.842;4.456;2022-10-23T07:52:46;16.50;99.90
23637;DHT22;11995;50.842;4.456;2022-10-23T07:55:14;16.40;99.90
23637;DHT22;11995;50.842;4.456;2022-10-23T07:57:41;16.50;99.90
23637;DHT22;11995;50.842;4.456;2022-10-23T08:00:10;16.50;99.90
23637;DHT22;11995;50.842;4.456;2022-10-23T08:02:37;16.50;99.90
23637;DHT22;11995;50.842;4.456;2022-10-23T08:05:06;16.70;99.90
23637;DHT22;11995;50.842;4.456;2022-10-23T08:07:33;16.70;99.90
23637;DHT22;11995;50.842;4.456;2022-10-23T08:10:01;16.80;99.90
23637;DHT22;11995;50.842;4.456;2022-10-23T08:12:28;16.80;99.90
23637;DHT22;11995;50.842;4.456;2022-10-23T08:14:56;16.60;99.90
23637;DHT22;11995;50.842;4.456;2022-10-23T08:17:24;16.70;99.90
23637;DHT22;11995;50.842;4.456;2022-10-23T08:19:52;16.50;99.90
23637;DHT22;11995;50.842;4.456;2022-10-23T08:22:19;16.60;99.90
23637;DHT22;11995;50.842;4.456;2022-10-23T08:24:47;16.70;99.90
23637;DHT22;11995;50.842;4.456;2022-10-23T08:27:14;16.80;99.90
23637;DHT22;11995;50.842;4.456;2022-10-23T08:29:42;16.70;99.90
23637;DHT22;11995;50.842;4.456;2022-10-23T08:32:09;16.70;99.90
23637;DHT22;11995;50.842;4.456;2022-10-23T08:34:37;16.80;99.90
23637;DHT22;11995;50.842;4.456;2022-10-23T08:37:05;16.80;99.90
23637;DHT22;11995;50.842;4.456;2022-10-23T08:39:33;16.90;99.90
23637;DHT22;11995;50.842;4.456;2022-10-23T08:42:02;17.00;99.90
23637;DHT22;11995;50.842;4.456;2022-10-23T08:44:45;16.90;99.90
23637;DHT22;11995;50.842;4.456;2022-10-23T08:47:17;16.90;99.90
23637;DHT22;11995;50.842;4.456;2022-10-23T08:52:43;16.70;99.90
23637;DHT22;11995;50.842;4.456;2022-10-23T09:00:59;16.80;99.90
23637;DHT22;11995;50.842;4.456;2022-10-23T09:03:26;16.70;99.90
23637;DHT22;11995;50.842;4.456;2022-10-23T09:11:38;16.60;99.90
23637;DHT22;11995;50.842;4.456;2022-10-23T09:14:30;16.90;99.90
23637;DHT22;11995;50.842;4.456;2022-10-23T09:17:11;17.10;99.90
23637;DHT22;11995;50.842;4.456;2022-10-23T09:19:38;17.10;99.90
23637;DHT22;11995;50.842;4.456;2022-10-23T09:22:05;17.10;99.90
23637;DHT22;11995;50.842;4.456;2022-10-23T09:24:35;17.00;99.90
23637;DHT22;11995;50.842;4.456;2022-10-23T09:27:02;17.10;99.90
23637;DHT22;11995;50.842;4.456;2022-10-23T09:29:32;17.10;99.90
23637;DHT22;11995;50.842;4.456;2022-10-23T09:32:05;17.20;99.90
23637;DHT22;11995;50.842;4.456;2022-10-23T09:34:34;17.30;99.90
23637;DHT22;11995;50.842;4.456;2022-10-23T09:37:16;17.40;99.90
23637;DHT22;11995;50.842;4.456;2022-10-23T09:39:34;17.40;99.90
23637;DHT22;11995;50.842;4.456;2022-10-23T09:42:14;17.30;99.90
23637;DHT22;11995;50.842;4.456;2022-10-23T09:44:46;17.30;99.90
23637;DHT22;11995;50.842;4.456;2022-10-23T09:47:21;17.30;99.90
23637;DHT22;11995;50.842;4.456;2022-10-23T09:49:48;17.20;99.90
23637;DHT22;11995;50.842;4.456;2022-10-23T09:54:58;17.60;99.90
23637;DHT22;11995;50.842;4.456;2022-10-23T09:57:32;17.70;99.90
23637;DHT22;11995;50.842;4.456;2022-10-23T10:00:05;17.70;99.90
23637;DHT22;11995;50.842;4.456;2022-10-23T10:02:36;17.70;99.90
23637;DHT22;11995;50.842;4.456;2022-10-23T10:05:26;17.80;99.90
23637;DHT22;11995;50.842;4.456;2022-10-23T10:10:33;17.80;99.90
23637;DHT22;11995;50.842;4.456;2022-10-23T10:13:00;18.00;99.90
23637;DHT22;11995;50.842;4.456;2022-10-23T10:15:36;18.00;99.90
23637;DHT22;11995;50.842;4.456;2022-10-23T10:18:27;18.00;99.90
23637;DHT22;11995;50.842;4.456;2022-10-23T10:21:04;18.10;99.90
23637;DHT22;11995;50.842;4.456;2022-10-23T10:34:39;18.40;99.90
23637;DHT22;11995;50.842;4.456;2022-10-23T10:37:12;18.40;99.90
23637;DHT22;11995;50.842;4.456;2022-10-23T10:42:31;18.50;99.90
23637;DHT22;11995;50.842;4.456;2022-10-23T10:45:27;18.70;99.90
23637;DHT22;11995;50.842;4.456;2022-10-23T10:50:25;18.70;99.90
23637;DHT22;11995;50.842;4.456;2022-10-23T10:55:48;18.90;99.90
23637;DHT22;11995;50.842;4.456;2022-10-23T11:01:24;18.80;99.90
23637;DHT22;11995;50.842;4.456;2022-10-23T11:04:10;18.90;99.90
23637;DHT22;11995;50.842;4.456;2022-10-23T11:06:37;18.80;99.90
23637;DHT22;11995;50.842;4.456;2022-10-23T11:09:21;18.80;99.90
23637;DHT22;11995;50.842;4.456;2022-10-23T11:11:49;18.70;99.90
23637;DHT22;11995;50.842;4.456;2022-10-23T11:14:25;18.70;99.90
23637;DHT22;11995;50.842;4.456;2022-10-23T11:17:13;18.70;99.90
23637;DHT22;11995;50.842;4.456;2022-10-23T11:19:41;18.80;99.90
23637;DHT22;11995;50.842;4.456;2022-10-23T11:22:24;18.90;99.90
23637;DHT22;11995;50.842;4.456;2022-10-23T11:28:10;19.00;99.90
23637;DHT22;11995;50.842;4.456;2022-10-23T11:33:34;19.00;99.90
23637;DHT22;11995;50.842;4.456;2022-10-23T11:36:10;18.90;99.90
23637;DHT22;11995;50.842;4.456;2022-10-23T11:38:37;18.90;99.90
23637;DHT22;11995;50.842;4.456;2022-10-23T11:41:22;19.00;99.90
23637;DHT22;11995;50.842;4.456;2022-10-23T11:43:53;19.10;99.90
23637;DHT22;11995;50.842;4.456;2022-10-23T11:48:54;19.30;99.90
23637;DHT22;11995;50.842;4.456;2022-10-23T11:57:08;19.30;99.90
23637;DHT22;11995;50.842;4.456;2022-10-23T11:59:34;19.30;99.90
23637;DHT22;11995;50.842;4.456;2022-10-23T12:04:52;19.70;99.90
23637;DHT22;11995;50.842;4.456;2022-10-23T12:07:23;19.80;99.90
23637;DHT22;11995;50.842;4.456;2022-10-23T12:09:56;19.70;99.90
23637;DHT22;11995;50.842;4.456;2022-10-23T12:12:35;19.80;99.90
23637;DHT22;11995;50.842;4.456;2022-10-23T12:17:42;20.00;99.90
23637;DHT22;11995;50.842;4.456;2022-10-23T12:23:01;20.10;99.90
23637;DHT22;11995;50.842;4.456;2022-10-23T12:34:15;19.60;99.90
23637;DHT22;11995;50.842;4.456;2022-10-23T12:39:34;19.90;99.90
23637;DHT22;11995;50.842;4.456;2022-10-23T12:42:26;20.00;99.90
23637;DHT22;11995;50.842;4.456;2022-10-23T12:45:00;20.00;99.90
23637;DHT22;11995;50.842;4.456;2022-10-23T12:47:29;20.10;99.90
23637;DHT22;11995;50.842;4.456;2022-10-23T12:49:57;20.10;99.90
23637;DHT22;11995;50.842;4.456;2022-10-23T12:52:24;20.10;99.90
23637;DHT22;11995;50.842;4.456;2022-10-23T12:54:52;20.10;99.90
23637;DHT22;11995;50.842;4.456;2022-10-23T12:57:26;20.30;99.90
23637;DHT22;11995;50.842;4.456;2022-10-23T13:00:01;20.50;99.90
23637;DHT22;11995;50.842;4.456;2022-10-23T13:02:28;20.30;99.90
23637;DHT22;11995;50.842;4.456;2022-10-23T13:05:00;20.30;99.90
23637;DHT22;11995;50.842;4.456;2022-10-23T13:07:29;20.40;99.90
23637;DHT22;11995;50.842;4.456;2022-10-23T13:09:58;20.40;99.90
23637;DHT22;11995;50.842;4.456;2022-10-23T13:12:32;20.60;99.90
23637;DHT22;11995;50.842;4.456;2022-10-23T13:15:13;20.60;99.90
23637;DHT22;11995;50.842;4.456;2022-10-23T13:17:39;20.60;99.90
23637;DHT22;11995;50.842;4.456;2022-10-23T13:22:55;20.40;99.90
23637;DHT22;11995;50.842;4.456;2022-10-23T13:25:28;20.40;99.90
23637;DHT22;11995;50.842;4.456;2022-10-23T13:28:49;20.40;99.90
23637;DHT22;11995;50.842;4.456;2022-10-23T13:30:43;20.50;99.90
23637;DHT22;11995;50.842;4.456;2022-10-23T13:33:22;20.50;99.90
23637;DHT22;11995;50.842;4.456;2022-10-23T13:38:44;20.50;99.90
23637;DHT22;11995;50.842;4.456;2022-10-23T13:41:16;20.40;99.90
23637;DHT22;11995;50.842;4.456;2022-10-23T13:43:45;20.40;99.90
23637;DHT22;11995;50.842;4.456;2022-10-23T13:46:18;20.30;99.90
23637;DHT22;11995;50.842;4.456;2022-10-23T13:48:47;20.30;99.90
23637;DHT22;11995;50.842;4.456;2022-10-23T13:51:20;20.30;99.90
23637;DHT22;11995;50.842;4.456;2022-10-23T13:53:49;20.30;99.90
23637;DHT22;11995;50.842;4.456;2022-10-23T13:56:19;20.20;99.90
23637;DHT22;11995;50.842;4.456;2022-10-23T13:58:48;20.30;99.90
23637;DHT22;11995;50.842;4.456;2022-10-23T14:01:25;20.30;99.90
23637;DHT22;11995;50.842;4.456;2022-10-23T14:03:53;20.20;99.90
23637;DHT22;11995;50.842;4.456;2022-10-23T14:06:20;20.10;99.90
23637;DHT22;11995;50.842;4.456;2022-10-23T14:08:56;20.10;99.90
23637;DHT22;11995;50.842;4.456;2022-10-23T14:11:24;20.30;99.90
23637;DHT22;11995;50.842;4.456;2022-10-23T14:13:51;20.20;99.90
23637;DHT22;11995;50.842;4.456;2022-10-23T14:16:20;20.30;99.90
23637;DHT22;11995;50.842;4.456;2022-10-23T14:18:50;20.30;99.90
23637;DHT22;11995;50.842;4.456;2022-10-23T14:21:20;20.60;99.90
23637;DHT22;11995;50.842;4.456;2022-10-23T14:23:49;20.50;99.90
23637;DHT22;11995;50.842;4.456;2022-10-23T14:26:18;20.50;99.90
23637;DHT22;11995;50.842;4.456;2022-10-23T14:28:46;20.40;99.90
23637;DHT22;11995;50.842;4.456;2022-10-23T14:31:15;20.40;99.90
23637;DHT22;11995;50.842;4.456;2022-10-23T14:33:44;20.30;99.90
23637;DHT22;11995;50.842;4.456;2022-10-23T14:36:13;20.30;99.90
23637;DHT22;11995;50.842;4.456;2022-10-23T14:38:41;20.30;99.90
23637;DHT22;11995;50.842;4.456;2022-10-23T14:41:13;20.30;99.90
23637;DHT22;11995;50.842;4.456;2022-10-23T14:43:41;20.30;99.90
23637;DHT22;11995;50.842;4.456;2022-10-23T14:46:14;20.30;99.90
23637;DHT22;11995;50.842;4.456;2022-10-23T14:48:42;20.20;99.90
23637;DHT22;11995;50.842;4.456;2022-10-23T14:51:28;20.20;99.90
23637;DHT22;11995;50.842;4.456;2022-10-23T14:53:57;19.90;99.90
23637;DHT22;11995;50.842;4.456;2022-10-23T14:56:30;20.00;99.90
23637;DHT22;11995;50.842;4.456;2022-10-23T14:58:59;20.10;99.90
23637;DHT22;11995;50.842;4.456;2022-10-23T15:01:36;20.00;99.90
23637;DHT22;11995;50.842;4.456;2022-10-23T15:03:59;20.00;99.90
23637;DHT22;11995;50.842;4.456;2022-10-23T15:06:26;19.90;99.90
23637;DHT22;11995;50.842;4.456;2022-10-23T15:08:54;19.80;99.90
23637;DHT22;11995;50.842;4.456;2022-10-23T15:11:23;19.70;99.90
23637;DHT22;11995;50.842;4.456;2022-10-23T15:13:51;19.60;99.90
23637;DHT22;11995;50.842;4.456;2022-10-23T15:16:21;19.60;99.90
23637;DHT22;11995;50.842;4.456;2022-10-23T15:18:49;19.50;99.90
23637;DHT22;11995;50.842;4.456;2022-10-23T15:21:17;19.60;99.90
23637;DHT22;11995;50.842;4.456;2022-10-23T15:23:45;19.50;99.90
23637;DHT22;11995;50.842;4.456;2022-10-23T15:26:15;19.50;99.90
23637;DHT22;11995;50.842;4.456;2022-10-23T15:28:44;19.50;99.90
23637;DHT22;11995;50.842;4.456;2022-10-23T15:34:09;19.60;99.90
23637;DHT22;11995;50.842;4.456;2022-10-23T15:36:38;19.60;99.90
23637;DHT22;11995;50.842;4.456;2022-10-23T15:39:08;19.60;99.90
23637;DHT22;11995;50.842;4.456;2022-10-23T15:41:37;19.60;99.90
23637;DHT22;11995;50.842;4.456;2022-10-23T15:44:07;19.50;99.90
23637;DHT22;11995;50.842;4.456;2022-10-23T15:46:35;19.50;99.90
23637;DHT22;11995;50.842;4.456;2022-10-23T15:49:03;19.40;99.90
23637;DHT22;11995;50.842;4.456;2022-10-23T15:51:31;19.20;99.90
23637;DHT22;11995;50.842;4.456;2022-10-23T15:53:59;19.30;99.90
23637;DHT22;11995;50.842;4.456;2022-10-23T15:56:26;19.30;99.90
23637;DHT22;11995;50.842;4.456;2022-10-23T15:58:54;19.60;99.90
23637;DHT22;11995;50.842;4.456;2022-10-23T16:01:21;19.50;99.90
23637;DHT22;11995;50.842;4.456;2022-10-23T16:03:49;19.40;99.90
23637;DHT22;11995;50.842;4.456;2022-10-23T16:06:17;19.50;99.90
23637;DHT22;11995;50.842;4.456;2022-10-23T16:08:45;19.40;99.90
23637;DHT22;11995;50.842;4.456;2022-10-23T16:11:25;19.30;99.90
23637;DHT22;11995;50.842;4.456;2022-10-23T16:13:49;19.40;99.90
23637;DHT22;11995;50.842;4.456;2022-10-23T16:16:17;19.40;99.90
23637;DHT22;11995;50.842;4.456;2022-10-23T16:18:45;19.30;99.90
23637;DHT22;11995;50.842;4.456;2022-10-23T16:21:24;19.30;99.90
23637;DHT22;11995;50.842;4.456;2022-10-23T16:23:54;19.20;99.90
23637;DHT22;11995;50.842;4.456;2022-10-23T16:26:24;19.10;99.90
23637;DHT22;11995;50.842;4.456;2022-10-23T16:28:56;19.00;99.90
23637;DHT22;11995;50.842;4.456;2022-10-23T16:31:25;19.20;99.90
23637;DHT22;11995;50.842;4.456;2022-10-23T16:33:53;19.00;99.90
23637;DHT22;11995;50.842;4.456;2022-10-23T16:36:22;18.80;99.90
23637;DHT22;11995;50.842;4.456;2022-10-23T16:38:50;18.90;99.90
23637;DHT22;11995;50.842;4.456;2022-10-23T16:41:18;19.00;99.90
23637;DHT22;11995;50.842;4.456;2022-10-23T16:43:45;19.00;99.90
23637;DHT22;11995;50.842;4.456;2022-10-23T16:46:16;18.90;99.90
23637;DHT22;11995;50.842;4.456;2022-10-23T16:48:44;18.80;99.90
23637;DHT22;11995;50.842;4.456;2022-10-23T16:51:17;18.90;99.90
23637;DHT22;11995;50.842;4.456;2022-10-23T16:53:46;18.80;99.90
23637;DHT22;11995;50.842;4.456;2022-10-23T16:56:17;18.90;99.90
23637;DHT22;11995;50.842;4.456;2022-10-23T16:58:45;18.70;99.90
23637;DHT22;11995;50.842;4.456;2022-10-23T17:01:22;18.70;99.90
23637;DHT22;11995;50.842;4.456;2022-10-23T17:03:51;18.70;99.90
23637;DHT22;11995;50.842;4.456;2022-10-23T17:06:29;18.70;99.90
23637;DHT22;11995;50.842;4.456;2022-10-23T17:08:54;18.60;99.90
23637;DHT22;11995;50.842;4.456;2022-10-23T17:11:27;18.50;99.90
23637;DHT22;11995;50.842;4.456;2022-10-23T17:14:02;18.40;99.90
23637;DHT22;11995;50.842;4.456;2022-10-23T17:16:34;18.60;99.90
23637;DHT22;11995;50.842;4.456;2022-10-23T17:18:57;18.60;99.90
23637;DHT22;11995;50.842;4.456;2022-10-23T17:21:24;18.60;99.90
23637;DHT22;11995;50.842;4.456;2022-10-23T17:23:52;18.60;99.90
23637;DHT22;11995;50.842;4.456;2022-10-23T17:26:21;18.60;99.90